Foxcroft Square, Pennsylvania
Current Conditions -  °F | °C
As of 7:39 AM on Monday 26 Jan 2015 (Local Time) from KPNE Reporting Station
Light Snow Light Snow  
Wind Chill: 15°   Ceiling: 2800
Heat Index: 27°   Visibility: 1.5mi
Dew Point: 19°   Wind: 15mph
Humidity: 72%   Direction: 70°ENE
Pressure: 29.96"   Gusts: NA
Location:  40.1039°N, 75.1072°W
Report Text: KPNE 261239Z AUTO 07013KT 1 1/2SM -SN BKN028 OVC033 M03/M07 A2996 RMK AO2 P0000 T10281072 TSNO
Loading
Personal Weather Stations






























Interactive Weather Map New forecast layout! Learn more

10-Day Weather Forecast

Advertisements
Track Severe Weather on mobile